Time;durP1;ratioP1;P1;durP2;ratioP2;P2;SDS_P1;SDS_P2;PMS_P1;PMS_P2;Temp;Humidity;BMP_temperature;BMP_pressure;BME280_temperature;BME280_humidity;BME280_pressure;Samples;Min_cycle;Max_cycle;Signal;HPM_P1;HPM_P2
2023/01/29 00:01:43;;;;;;;19.60;12.60;;;;;;;-0.57;84.23;102087.78;5032953;28;20210;-82
2023/01/29 00:04:11;;;;;;;21.03;12.13;;;;;;;-0.55;84.02;102082.56;5030504;28;20206;-82
2023/01/29 00:06:38;;;;;;;24.83;13.93;;;;;;;-0.51;84.08;102079.06;5034718;28;20226;-82
2023/01/29 00:09:04;;;;;;;37.03;18.10;;;;;;;-0.51;84.06;102084.28;5024095;28;20231;-82
2023/01/29 00:11:31;;;;;;;35.67;16.87;;;;;;;-0.52;83.83;102069.47;5029942;28;20202;-81
2023/01/29 00:13:58;;;;;;;20.20;11.87;;;;;;;-0.50;83.81;102066.00;5029673;28;20582;-82
2023/01/29 00:16:24;;;;;;;25.60;14.30;;;;;;;-0.49;83.58;102070.34;5035042;28;20226;-82
2023/01/29 00:18:51;;;;;;;22.77;13.60;;;;;;;-0.47;83.82;102070.38;5034023;28;20672;-83
2023/01/29 00:21:20;;;;;;;19.90;12.27;;;;;;;-0.46;83.65;102066.88;5029535;28;20217;-83
2023/01/29 00:23:47;;;;;;;19.17;11.53;;;;;;;-0.43;83.61;102061.66;5029589;28;20202;-83
2023/01/29 00:26:15;;;;;;;18.33;11.37;;;;;;;-0.42;83.85;102066.91;5029181;28;20226;-80
2023/01/29 00:28:41;;;;;;;19.30;12.40;;;;;;;-0.41;83.77;102063.44;5025536;28;20314;-83
2023/01/29 00:31:08;;;;;;;18.17;12.83;;;;;;;-0.39;83.56;102064.31;5027673;28;20222;-82
2023/01/29 00:33:35;;;;;;;19.73;11.37;;;;;;;-0.37;83.46;102061.72;5030571;28;20694;-82
2023/01/29 00:36:03;;;;;;;18.40;10.70;;;;;;;-0.37;83.55;102065.19;5028393;28;20643;-83
2023/01/29 00:38:32;;;;;;;14.57;9.73;;;;;;;-0.37;83.68;102066.94;5027846;28;20725;-83
2023/01/29 00:46:27;;;;;;;18.33;11.30;;;;;;;-0.32;83.43;102065.19;5029709;28;20232;-83
2023/01/29 00:48:53;;;;;;;17.70;12.20;;;;;;;-0.32;83.49;102056.47;5034957;28;20218;-81
2023/01/29 00:51:19;;;;;;;19.73;12.23;;;;;;;-0.33;83.30;102052.97;5031423;28;20232;-83
2023/01/29 00:53:47;;;;;;;21.10;11.70;;;;;;;-0.32;83.30;102067.81;5031734;28;20689;-84
2023/01/29 00:56:14;;;;;;;24.63;14.17;;;;;;;-0.32;83.31;102059.97;5029787;28;20280;-81
2023/01/29 00:58:40;;;;;;;18.33;11.93;;;;;;;-0.31;83.11;102051.25;5032266;28;20225;-83
2023/01/29 01:01:07;;;;;;;18.63;11.20;;;;;;;-0.32;83.12;102057.34;5027398;28;20211;-84
2023/01/29 01:03:34;;;;;;;18.13;12.23;;;;;;;-0.31;83.00;102066.06;5029062;28;20222;-83
2023/01/29 01:06:05;;;;;;;19.10;11.47;;;;;;;-0.32;83.06;102065.19;5025985;28;20210;-83
2023/01/29 01:11:17;;;;;;;19.43;12.43;;;;;;;-0.32;83.21;102066.94;5025657;28;20209;-83
2023/01/29 01:13:43;;;;;;;19.53;12.40;;;;;;;-0.33;83.09;102068.69;5031158;28;20213;-83
2023/01/29 01:16:10;;;;;;;18.87;12.00;;;;;;;-0.32;83.14;102074.78;5026471;28;20229;-83
2023/01/29 01:18:37;;;;;;;19.30;11.93;;;;;;;-0.33;82.98;102071.28;5033603;28;20206;-83
2023/01/29 01:21:05;;;;;;;17.70;11.83;;;;;;;-0.34;83.00;102066.91;5030587;28;20656;-83
2023/01/29 01:23:31;;;;;;;23.60;12.73;;;;;;;-0.34;82.72;102061.69;5026762;28;20296;-83
2023/01/29 01:25:58;;;;;;;19.43;12.47;;;;;;;-0.37;82.70;102061.72;5029863;28;20297;-82
2023/01/29 01:28:26;;;;;;;21.77;12.80;;;;;;;-0.38;82.90;102055.59;5029224;28;20608;-82
2023/01/29 01:30:52;;;;;;;20.87;13.00;;;;;;;-0.41;83.04;102050.34;5028282;28;20213;-82
2023/01/29 01:33:19;;;;;;;24.90;13.60;;;;;;;-0.43;82.75;102051.19;5022665;28;20833;-82
2023/01/29 01:35:45;;;;;;;20.23;13.43;;;;;;;-0.44;82.84;102044.22;5025205;28;20265;-82
2023/01/29 01:38:12;;;;;;;19.00;13.13;;;;;;;-0.47;83.05;102038.97;5029214;28;20623;-82
2023/01/29 01:40:44;;;;;;;22.43;13.33;;;;;;;-0.48;82.71;102034.59;5025089;28;20221;-82
2023/01/29 01:43:11;;;;;;;21.43;12.43;;;;;;;-0.49;82.70;102031.09;5030254;28;20209;-82
2023/01/29 01:45:39;;;;;;;21.30;13.00;;;;;;;-0.52;82.88;102024.97;5025098;28;20214;-81
2023/01/29 01:48:11;;;;;;;20.57;12.73;;;;;;;-0.53;83.16;102018.00;5030355;28;20317;-83
2023/01/29 01:50:43;;;;;;;22.50;12.97;;;;;;;-0.53;83.16;102023.22;5031010;28;20202;-82
2023/01/29 01:53:12;;;;;;;18.90;11.60;;;;;;;-0.53;82.94;102013.63;5028149;28;20209;-82
2023/01/29 01:55:43;;;;;;;19.37;12.93;;;;;;;-0.53;82.91;102020.59;5026833;28;20202;-82
2023/01/29 01:58:15;;;;;;;19.93;12.17;;;;;;;-0.53;83.00;102023.22;5021404;28;20585;-82
2023/01/29 02:00:43;;;;;;;20.27;12.20;;;;;;;-0.54;82.91;102014.53;5023311;28;20207;-82
2023/01/29 02:11:36;;;;;;;21.40;13.07;;;;;;;-0.56;82.88;102018.00;5025361;28;20221;-82
2023/01/29 02:14:02;;;;;;;20.23;12.80;;;;;;;-0.58;82.92;102019.75;5027254;28;20206;-84
2023/01/29 02:16:30;;;;;;;20.93;13.53;;;;;;;-0.58;82.88;102019.75;5029189;28;20232;-82
2023/01/29 02:18:57;;;;;;;23.60;13.83;;;;;;;-0.59;82.89;102025.84;5032064;28;20211;-82
2023/01/29 02:21:48;;;;;;;21.50;13.40;;;;;;;-0.62;83.01;102029.31;5031238;28;20331;-83
2023/01/29 02:24:53;;;;;;;20.93;12.63;;;;;;;-0.64;82.81;102032.78;5028533;28;20202;-82
2023/01/29 02:27:23;;;;;;;21.97;13.07;;;;;;;-0.66;82.93;102035.38;5023055;28;20754;-82
2023/01/29 02:30:01;;;;;;;26.30;13.80;;;;;;;-0.65;82.87;102033.66;5032106;28;20241;-82
2023/01/29 02:32:34;;;;;;;20.73;12.20;;;;;;;-0.67;82.96;102027.53;5030420;28;20221;-82
2023/01/29 02:35:27;;;;;;;18.83;12.17;;;;;;;-0.67;83.22;102041.47;5032488;28;20202;-82
2023/01/29 02:38:01;;;;;;;20.23;12.43;;;;;;;-0.68;82.96;102038.84;5029412;28;20253;-82
2023/01/29 02:40:34;;;;;;;21.90;12.97;;;;;;;-0.71;82.88;102050.19;5031271;28;20212;-81
2023/01/29 02:43:11;;;;;;;21.33;12.70;;;;;;;-0.72;82.89;102044.06;5023962;28;20202;-82
2023/01/29 02:45:46;;;;;;;23.87;13.10;;;;;;;-0.71;83.24;102052.78;5032254;28;20269;-82
2023/01/29 02:48:17;;;;;;;24.67;13.47;;;;;;;-0.72;83.44;102053.69;5029557;28;20225;-81
2023/01/29 02:50:49;;;;;;;20.27;12.77;;;;;;;-0.73;83.20;102051.94;5038927;28;20221;-82
2023/01/29 02:53:19;;;;;;;21.03;13.07;;;;;;;-0.72;83.42;102048.47;5030282;28;20206;-82
2023/01/29 02:55:52;;;;;;;24.07;14.37;;;;;;;-0.71;83.34;102058.91;5034983;28;20217;-82
2023/01/29 02:58:26;;;;;;;22.47;13.70;;;;;;;-0.70;83.53;102058.03;5030341;28;20222;-82
2023/01/29 03:00:59;;;;;;;21.80;14.03;;;;;;;-0.70;83.66;102060.66;5032827;28;20204;-82
2023/01/29 03:03:29;;;;;;;21.87;14.03;;;;;;;-0.70;83.58;102063.28;5036698;28;20206;-82
2023/01/29 03:06:01;;;;;;;22.47;13.50;;;;;;;-0.68;83.52;102065.91;5034772;28;20213;-82
2023/01/29 03:08:41;;;;;;;24.53;14.80;;;;;;;-0.67;83.72;102062.41;5032788;28;20205;-82
2023/01/29 03:11:12;;;;;;;24.27;14.73;;;;;;;-0.67;83.71;102043.22;5031349;28;20202;-81
2023/01/29 03:13:44;;;;;;;24.17;14.23;;;;;;;-0.67;83.54;102051.94;5033232;28;20296;-83
2023/01/29 03:16:18;;;;;;;25.00;13.77;;;;;;;-0.66;83.77;102048.47;5024730;28;20205;-82
2023/01/29 03:18:49;;;;;;;27.77;14.53;;;;;;;-0.67;83.54;102031.03;5032080;28;20615;-82
2023/01/29 03:32:29;;;;;;;23.00;13.77;;;;;;;-0.65;83.97;102016.22;5035592;28;20297;-82
2023/01/29 03:35:02;;;;;;;23.17;13.50;;;;;;;-0.65;84.03;102021.44;5026779;28;20209;-82
2023/01/29 03:37:34;;;;;;;24.47;14.10;;;;;;;-0.62;83.95;102031.06;5029238;28;20260;-82
2023/01/29 03:40:01;;;;;;;27.30;14.97;;;;;;;-0.60;83.97;102031.94;5032199;28;20199;-82
2023/01/29 03:42:38;;;;;;;25.70;14.60;;;;;;;-0.60;83.95;102038.03;5030213;28;20213;-81
2023/01/29 03:45:12;;;;;;;27.33;14.50;;;;;;;-0.59;84.02;102026.72;5024023;28;20217;-82
2023/01/29 03:47:45;;;;;;;24.73;13.80;;;;;;;-0.58;84.14;102025.84;5025782;28;20288;-81
2023/01/29 03:50:24;;;;;;;25.50;14.20;;;;;;;-0.57;84.02;102019.75;5022689;28;20823;-83
2023/01/29 03:52:59;;;;;;;23.87;14.07;;;;;;;-0.55;83.83;102023.25;5027295;28;20197;-81
2023/01/29 03:55:36;;;;;;;22.97;13.83;;;;;;;-0.52;84.03;102019.75;5029563;28;20681;-81
2023/01/29 03:58:08;;;;;;;25.17;14.30;;;;;;;-0.50;84.16;102018.00;5033238;28;20609;-82
2023/01/29 04:00:40;;;;;;;26.40;14.13;;;;;;;-0.50;84.06;102011.03;5028023;28;20190;-82
2023/01/29 04:03:14;;;;;;;25.30;13.37;;;;;;;-0.48;83.91;102000.56;5032676;28;20201;-81
2023/01/29 04:05:45;;;;;;;26.00;14.63;;;;;;;-0.47;83.67;102008.44;5029766;28;20566;-82
2023/01/29 04:08:16;;;;;;;26.40;14.47;;;;;;;-0.46;83.94;102004.94;5028033;28;20241;-81
2023/01/29 04:10:45;;;;;;;25.33;13.30;;;;;;;-0.45;84.25;101997.97;5034356;28;20853;-81
2023/01/29 04:13:14;;;;;;;25.40;14.40;;;;;;;-0.44;83.98;101997.97;5030196;28;20426;-81
2023/01/29 04:15:45;;;;;;;22.47;14.03;;;;;;;-0.43;84.04;101994.50;5041738;28;20218;-81
2023/01/29 04:18:13;;;;;;;21.97;14.10;;;;;;;-0.43;84.26;101981.41;5030290;28;20618;-83
2023/01/29 04:20:40;;;;;;;27.20;14.60;;;;;;;-0.42;83.99;101977.06;5035958;28;20206;-83
2023/01/29 04:23:21;;;;;;;24.03;13.87;;;;;;;-0.42;84.05;101969.19;5031928;28;20701;-82
2023/01/29 04:25:53;;;;;;;28.37;15.17;;;;;;;-0.42;84.03;101964.84;5034458;28;20208;-86
2023/01/29 04:28:25;;;;;;;25.03;14.77;;;;;;;-0.40;83.67;101962.22;5030888;28;20202;-83
2023/01/29 04:30:57;;;;;;;24.70;14.13;;;;;;;-0.40;83.78;101963.09;5027665;28;20222;-82
2023/01/29 04:33:34;;;;;;;23.97;13.50;;;;;;;-0.39;83.79;101969.22;5036077;28;20271;-82
2023/01/29 04:36:17;;;;;;;22.00;13.57;;;;;;;-0.39;83.27;101959.63;5031801;28;20218;-83
2023/01/29 04:38:55;;;;;;;25.00;13.97;;;;;;;-0.37;83.48;101962.25;5022302;28;20201;-83
2023/01/29 04:41:25;;;;;;;27.43;14.83;;;;;;;-0.35;83.61;101956.09;5019401;28;20197;-83
2023/01/29 04:44:00;;;;;;;26.30;14.70;;;;;;;-0.35;83.71;101943.03;5031781;28;20570;-82
2023/01/29 04:46:52;;;;;;;26.53;14.57;;;;;;;-0.31;83.61;101945.66;5032024;28;20736;-85
2023/01/29 04:49:33;;;;;;;23.70;13.40;;;;;;;-0.30;83.16;101932.56;5028718;28;20313;-82
2023/01/29 04:52:07;;;;;;;24.80;14.43;;;;;;;-0.29;83.40;101920.34;5021584;28;20209;-83
2023/01/29 04:54:46;;;;;;;29.47;14.97;;;;;;;-0.30;82.94;101911.63;5031986;28;20201;-82
2023/01/29 04:57:18;;;;;;;23.47;13.73;;;;;;;-0.29;83.23;101910.75;5029440;28;20233;-83
2023/01/29 04:59:50;;;;;;;23.03;13.80;;;;;;;-0.27;83.23;101910.75;5028200;28;20195;-83
2023/01/29 05:02:19;;;;;;;26.13;14.13;;;;;;;-0.26;83.25;101910.78;5031527;28;20599;-84
2023/01/29 05:04:49;;;;;;;23.50;13.83;;;;;;;-0.28;83.11;101920.34;5026124;28;20230;-85
2023/01/29 05:07:17;;;;;;;28.10;14.33;;;;;;;-0.26;83.07;101923.84;5031186;28;20229;-83
2023/01/29 05:09:46;;;;;;;24.43;13.67;;;;;;;-0.24;83.11;101926.47;5023960;28;20226;-84
2023/01/29 05:12:15;;;;;;;23.70;13.87;;;;;;;-0.25;82.93;101920.38;5025429;28;20216;-82
2023/01/29 05:14:44;;;;;;;25.43;14.23;;;;;;;-0.24;82.94;101927.34;5030205;28;20690;-84
2023/01/29 05:17:15;;;;;;;27.23;14.53;;;;;;;-0.24;83.20;101924.75;5026606;28;20708;-85
2023/01/29 05:19:42;;;;;;;23.50;13.57;;;;;;;-0.22;82.93;101919.50;5028593;28;20276;-83
2023/01/29 05:22:13;;;;;;;21.17;12.63;;;;;;;-0.22;82.47;101925.63;5027719;28;20215;-84
2023/01/29 05:24:39;;;;;;;29.93;14.87;;;;;;;-0.21;82.92;101927.38;5030372;28;20792;-82
2023/01/29 05:29:51;;;;;;;24.90;13.90;;;;;;;-0.20;82.70;101928.22;5032270;28;20279;-84
2023/01/29 05:32:17;;;;;;;24.50;13.83;;;;;;;-0.20;82.46;101929.09;5026333;28;20214;-84
2023/01/29 05:34:44;;;;;;;25.50;15.43;;;;;;;-0.18;82.68;101926.50;5028775;28;20277;-82
2023/01/29 05:37:11;;;;;;;22.80;12.83;;;;;;;-0.17;82.47;101922.97;5027896;28;20740;-85
2023/01/29 05:39:38;;;;;;;26.27;14.87;;;;;;;-0.17;82.65;101917.75;5033186;28;20210;-82
2023/01/29 05:42:04;;;;;;;27.23;14.70;;;;;;;-0.17;82.75;101928.22;5031390;28;20210;-82
2023/01/29 05:44:31;;;;;;;27.43;14.93;;;;;;;-0.17;82.32;101934.31;5025320;28;20583;-82
2023/01/29 05:46:57;;;;;;;24.53;14.90;;;;;;;-0.17;82.43;101936.94;5027654;28;20601;-85
2023/01/29 05:49:24;;;;;;;29.90;14.97;;;;;;;-0.16;82.53;101938.69;5031367;28;20662;-83
2023/01/29 05:51:50;;;;;;;28.13;13.77;;;;;;;-0.15;82.31;101945.69;5029058;28;20215;-84
2023/01/29 05:54:18;;;;;;;25.43;14.23;;;;;;;-0.15;82.11;101936.94;5034883;28;20221;-84
2023/01/29 05:56:44;;;;;;;27.23;14.67;;;;;;;-0.19;82.23;101933.47;5037397;28;20226;-83
2023/01/29 05:59:11;;;;;;;27.57;14.80;;;;;;;-0.18;82.18;101943.03;5033224;28;20209;-82
2023/01/29 06:01:37;;;;;;;27.57;15.33;;;;;;;-0.19;82.43;101941.34;5035014;28;20213;-85
2023/01/29 06:04:04;;;;;;;29.50;14.53;;;;;;;-0.17;82.04;101943.91;5036705;28;20206;-83
2023/01/29 06:06:30;;;;;;;32.00;16.33;;;;;;;-0.17;82.00;101954.41;5042307;28;20228;-84
2023/01/29 06:08:57;;;;;;;32.87;15.77;;;;;;;-0.18;81.86;101943.03;5034938;28;20206;-84
2023/01/29 06:11:25;;;;;;;30.17;15.70;;;;;;;-0.18;82.06;101956.13;5028107;28;20234;-85
2023/01/29 06:13:52;;;;;;;33.77;16.57;;;;;;;-0.17;82.09;101955.28;5032294;28;20213;-83
2023/01/29 06:16:18;;;;;;;28.33;14.80;;;;;;;-0.17;82.10;101951.78;5030749;28;20611;-82
2023/01/29 06:18:45;;;;;;;26.47;14.87;;;;;;;-0.17;81.98;101955.28;5028285;28;20215;-82
2023/01/29 06:21:13;;;;;;;32.83;15.23;;;;;;;-0.18;81.95;101960.53;5028818;28;20204;-84
2023/01/29 06:23:40;;;;;;;27.57;15.10;;;;;;;-0.16;82.02;101961.38;5030599;28;20647;-82
2023/01/29 06:26:10;;;;;;;27.73;14.87;;;;;;;-0.16;81.83;101953.53;5034981;28;20218;-83
2023/01/29 06:28:38;;;;;;;31.50;15.67;;;;;;;-0.15;81.88;101953.53;5032068;28;20210;-83
2023/01/29 06:31:07;;;;;;;25.70;14.27;;;;;;;-0.14;81.97;101943.94;5030622;28;20226;-83
2023/01/29 06:33:34;;;;;;;27.10;14.97;;;;;;;-0.13;81.63;101936.09;5036786;28;20206;-83
2023/01/29 06:36:02;;;;;;;26.60;15.50;;;;;;;-0.13;81.31;101938.69;5034175;28;20202;-84
2023/01/29 06:38:29;;;;;;;31.97;15.80;;;;;;;-0.13;81.65;101943.94;5036078;28;20209;-82
2023/01/29 06:40:56;;;;;;;28.93;15.20;;;;;;;-0.13;81.79;101941.31;5034693;28;20285;-83
2023/01/29 06:43:23;;;;;;;30.40;14.93;;;;;;;-0.13;81.58;101936.09;5033487;28;20203;-86
2023/01/29 06:45:53;;;;;;;30.73;15.43;;;;;;;-0.12;81.59;101950.91;5031398;28;20205;-85
2023/01/29 06:48:20;;;;;;;27.87;14.90;;;;;;;-0.12;81.54;101953.53;5031438;28;20671;-85
2023/01/29 06:50:48;;;;;;;29.70;15.57;;;;;;;-0.11;81.65;101947.44;5031337;28;20222;-85
2023/01/29 06:53:15;;;;;;;30.83;15.77;;;;;;;-0.12;81.65;101950.91;5032539;28;20246;-85
2023/01/29 06:55:41;;;;;;;30.43;15.27;;;;;;;-0.11;81.46;101952.66;5032300;28;20285;-84
2023/01/29 06:58:09;;;;;;;28.87;15.43;;;;;;;-0.10;81.43;101953.53;5030980;28;20230;-83
2023/01/29 07:00:35;;;;;;;32.20;15.77;;;;;;;-0.13;81.54;101940.44;5031752;28;20198;-85
2023/01/29 07:03:04;;;;;;;28.97;15.60;;;;;;;-0.13;81.30;101941.31;5031533;28;20222;-83
2023/01/29 07:05:31;;;;;;;28.53;15.03;;;;;;;-0.09;81.47;101937.84;5029903;28;20206;-84
2023/01/29 07:07:58;;;;;;;30.73;15.87;;;;;;;-0.10;81.36;101967.50;5031739;28;20223;-84
2023/01/29 07:10:24;;;;;;;31.13;16.00;;;;;;;-0.11;81.45;101976.25;5034362;28;20233;-83
2023/01/29 07:12:51;;;;;;;33.10;15.27;;;;;;;-0.10;81.22;101969.25;5028871;28;20198;-83
2023/01/29 07:15:20;;;;;;;33.53;16.07;;;;;;;-0.09;81.38;101968.38;5028353;28;20214;-85
2023/01/29 07:17:56;;;;;;;32.07;16.17;;;;;;;-0.08;81.32;101972.75;5036914;28;20685;-83
2023/01/29 07:20:24;;;;;;;33.33;17.30;;;;;;;-0.08;81.35;101986.72;5039414;28;20206;-85
2023/01/29 07:22:50;;;;;;;31.03;16.13;;;;;;;-0.07;81.35;101979.75;5029517;28;20618;-83
2023/01/29 07:25:17;;;;;;;27.83;15.47;;;;;;;-0.06;81.13;101979.75;5031293;28;20665;-83
2023/01/29 07:27:43;;;;;;;33.77;16.27;;;;;;;-0.04;81.11;101985.00;5031418;28;20726;-85
2023/01/29 07:30:11;;;;;;;32.77;16.47;;;;;;;-0.05;81.08;101981.50;5032788;28;20229;-85
2023/01/29 07:32:37;;;;;;;31.17;15.90;;;;;;;-0.05;81.14;101976.25;5028149;28;20193;-85
2023/01/29 07:35:04;;;;;;;34.03;15.57;;;;;;;-0.07;80.88;101978.00;5028698;28;20202;-85
2023/01/29 07:37:32;;;;;;;30.33;16.63;;;;;;;-0.07;81.32;101961.41;5025939;28;20233;-85
2023/01/29 07:39:59;;;;;;;34.00;16.43;;;;;;;-0.07;81.18;101966.66;5033120;28;20202;-85
2023/01/29 07:42:25;;;;;;;33.20;16.63;;;;;;;-0.08;81.28;101965.78;5038682;28;20201;-85
2023/01/29 07:44:52;;;;;;;31.40;16.07;;;;;;;-0.06;81.34;101950.06;5029543;28;20264;-85
2023/01/29 07:47:18;;;;;;;35.20;16.60;;;;;;;-0.07;81.20;101932.59;5032602;28;20219;-84
2023/01/29 07:49:45;;;;;;;34.00;17.07;;;;;;;-0.07;81.51;101946.56;5031159;28;20224;-85
2023/01/29 07:52:11;;;;;;;33.10;17.00;;;;;;;-0.10;81.54;101936.09;5035754;28;20230;-85
2023/01/29 07:54:39;;;;;;;36.97;17.87;;;;;;;-0.10;81.54;101950.94;5039954;28;20213;-86
2023/01/29 07:57:06;;;;;;;34.20;16.57;;;;;;;-0.09;81.39;101937.84;5041488;28;20228;-85
2023/01/29 07:59:32;;;;;;;34.37;15.57;;;;;;;-0.10;81.38;101949.19;5033399;28;20273;-85
2023/01/29 08:01:58;;;;;;;33.70;16.17;;;;;;;-0.10;81.77;101936.09;5036579;28;20797;-85
2023/01/29 08:04:25;;;;;;;34.73;16.77;;;;;;;-0.09;81.64;101932.59;5029403;28;20590;-83
2023/01/29 08:06:52;;;;;;;36.20;16.27;;;;;;;-0.08;81.60;101918.63;5035529;28;20706;-84
2023/01/29 08:09:18;;;;;;;38.40;16.73;;;;;;;-0.07;81.91;101904.66;5036385;28;20211;-84
2023/01/29 08:11:46;;;;;;;32.23;17.03;;;;;;;-0.05;81.69;101884.59;5035053;28;20226;-84
2023/01/29 08:14:12;;;;;;;34.60;15.63;;;;;;;-0.05;81.99;101889.84;5030393;28;20654;-84
2023/01/29 08:16:39;;;;;;;35.23;15.90;;;;;;;-0.02;81.96;101895.09;5036504;28;20234;-83
2023/01/29 08:19:05;;;;;;;33.90;16.37;;;;;;;-0.01;82.12;101896.81;5040243;28;20213;-84
2023/01/29 08:21:32;;;;;;;33.20;16.53;;;;;;;0.03;82.18;101894.19;5039393;28;20691;-84
2023/01/29 08:24:13;;;;;;;34.83;17.80;;;;;;;0.05;82.28;101898.53;5036834;28;20602;-84
2023/01/29 08:26:40;;;;;;;31.53;14.57;;;;;;;0.07;82.46;101911.66;5029629;28;20233;-83
2023/01/29 08:29:08;;;;;;;30.30;16.63;;;;;;;0.08;82.57;101902.91;5031014;28;20717;-83
2023/01/29 08:31:34;;;;;;;35.33;16.87;;;;;;;0.10;82.59;101902.06;5029078;28;20222;-83
2023/01/29 08:34:01;;;;;;;35.27;15.27;;;;;;;0.13;82.42;101896.81;5032388;28;20221;-82
2023/01/29 08:36:27;;;;;;;31.57;16.33;;;;;;;0.14;82.78;101903.81;5029439;28;20263;-83
2023/01/29 08:38:54;;;;;;;36.07;17.30;;;;;;;0.21;82.65;101899.41;5038627;28;20199;-83
2023/01/29 08:41:20;;;;;;;31.63;15.13;;;;;;;0.24;82.75;101888.94;5039714;28;20565;-81
2023/01/29 08:43:47;;;;;;;32.27;15.60;;;;;;;0.24;82.81;101902.03;5031643;28;20207;-83
2023/01/29 08:46:15;;;;;;;30.77;15.43;;;;;;;0.25;82.78;101888.06;5028251;28;20207;-83
2023/01/29 08:48:41;;;;;;;34.20;17.17;;;;;;;0.26;82.74;101900.28;5027103;28;20194;-84
2023/01/29 08:51:12;;;;;;;34.93;15.90;;;;;;;0.26;82.83;101900.28;5030994;28;20256;-85
2023/01/29 08:53:39;;;;;;;35.87;18.03;;;;;;;0.27;82.91;101894.19;5031045;28;20198;-85
2023/01/29 08:56:08;;;;;;;36.00;17.77;;;;;;;0.29;82.95;101895.91;5026408;28;20209;-84
2023/01/29 08:58:42;;;;;;;36.03;17.60;;;;;;;0.32;82.95;101895.06;5032708;28;20221;-85
2023/01/29 09:01:16;;;;;;;36.90;18.33;;;;;;;0.33;82.93;101888.94;5027529;28;20210;-82
2023/01/29 09:03:45;;;;;;;33.33;16.50;;;;;;;0.34;83.30;101890.69;5030170;28;20567;-85
2023/01/29 09:06:14;;;;;;;40.17;19.30;;;;;;;0.33;82.96;101899.41;5033076;28;20569;-86
2023/01/29 09:08:41;;;;;;;34.47;17.87;;;;;;;0.32;83.31;101893.31;5033597;28;20210;-85
2023/01/29 09:11:10;;;;;;;33.83;17.27;;;;;;;0.37;83.22;101887.16;5029686;28;20230;-84
2023/01/29 09:13:39;;;;;;;35.07;17.33;;;;;;;0.37;83.31;101884.53;5030525;28;20856;-87
2023/01/29 09:16:06;;;;;;;38.23;17.77;;;;;;;0.38;83.36;101874.06;5029256;28;20205;-83
2023/01/29 09:18:37;;;;;;;35.40;17.97;;;;;;;0.37;83.17;101874.94;5026912;28;20239;-84
2023/01/29 09:21:04;;;;;;;42.47;19.37;;;;;;;0.35;83.47;101879.31;5031706;28;20641;-84
2023/01/29 09:23:31;;;;;;;38.37;19.17;;;;;;;0.40;83.38;101879.28;5025609;28;20651;-83
2023/01/29 09:25:58;;;;;;;36.13;17.80;;;;;;;0.40;83.42;101867.06;5031719;28;20275;-85
2023/01/29 09:28:25;;;;;;;35.57;18.07;;;;;;;0.41;83.49;101867.94;5036878;28;20206;-84
2023/01/29 09:30:53;;;;;;;36.53;18.43;;;;;;;0.41;83.73;101849.59;5031982;28;20223;-84
2023/01/29 09:33:23;;;;;;;36.87;19.10;;;;;;;0.43;83.53;101851.34;5039009;28;20214;-84
2023/01/29 09:35:51;;;;;;;32.63;15.80;;;;;;;0.45;83.74;101835.63;5038883;28;20218;-83
2023/01/29 09:38:20;;;;;;;38.70;18.80;;;;;;;0.46;83.78;101848.72;5031162;28;20222;-85
2023/01/29 09:40:54;;;;;;;39.90;19.53;;;;;;;0.46;84.00;101835.59;5030066;28;20194;-85
2023/01/29 09:43:26;;;;;;;30.77;16.60;;;;;;;0.54;83.66;101836.44;5034488;28;20605;-85
2023/01/29 09:45:58;;;;;;;43.13;19.93;;;;;;;0.49;83.98;101821.63;5030408;28;20199;-83
2023/01/29 09:48:28;;;;;;;40.97;19.83;;;;;;;0.52;84.07;101840.84;5037234;28;20202;-85
2023/01/29 09:50:59;;;;;;;42.67;20.27;;;;;;;0.54;84.11;101825.94;5034887;28;20246;-85
2023/01/29 09:53:31;;;;;;;39.10;19.00;;;;;;;0.56;84.35;101824.19;5039472;28;20225;-86
2023/01/29 09:56:02;;;;;;;37.60;17.60;;;;;;;0.58;84.65;101819.81;5034728;28;20297;-86
2023/01/29 09:58:35;;;;;;;43.77;19.53;;;;;;;0.61;84.58;101818.94;5033724;28;20210;-86
2023/01/29 10:01:15;;;;;;;38.47;19.37;;;;;;;0.62;84.48;101808.47;5038068;28;20275;-86
2023/01/29 10:04:07;;;;;;;40.13;18.50;;;;;;;0.66;84.35;101807.56;5034963;28;20454;-83
2023/01/29 10:06:52;;;;;;;41.23;19.43;;;;;;;0.70;84.77;101818.94;5033885;28;20226;-82
2023/01/29 10:10:02;;;;;;;39.47;19.30;;;;;;;0.73;84.44;101799.66;5030375;28;20206;-83
2023/01/29 10:12:53;;;;;;;38.27;18.70;;;;;;;0.76;84.62;101812.75;5030222;28;20213;-83
2023/01/29 10:16:03;;;;;;;34.47;18.57;;;;;;;0.75;84.82;101795.28;5030724;28;20210;-83
2023/01/29 10:19:00;;;;;;;46.67;21.67;;;;;;;0.83;84.83;101811.88;5036705;28;20296;-83
2023/01/29 10:21:57;;;;;;;64.00;32.63;;;;;;;0.83;84.55;101812.75;5030393;28;20194;-83
2023/01/29 10:24:41;;;;;;;37.57;20.50;;;;;;;0.87;84.73;101811.84;5031384;28;20210;-83
2023/01/29 10:27:17;;;;;;;36.30;20.10;;;;;;;0.90;84.90;101809.19;5027607;28;20317;-83
2023/01/29 10:29:45;;;;;;;39.93;19.93;;;;;;;0.91;84.54;101813.56;5032813;28;20304;-83
2023/01/29 10:32:15;;;;;;;41.37;21.37;;;;;;;0.95;84.31;101812.66;5039306;28;20309;-83
2023/01/29 10:38:21;;;;;;;36.50;17.90;;;;;;;1.00;83.87;101813.53;5025668;28;20222;-82
2023/01/29 10:40:56;;;;;;;39.43;18.77;;;;;;;1.07;83.67;101813.50;5028703;28;20237;-83
2023/01/29 10:43:34;;;;;;;35.87;17.77;;;;;;;1.10;83.48;101808.22;5033055;28;20229;-82
2023/01/29 10:46:18;;;;;;;49.23;22.90;;;;;;;1.09;83.26;101825.69;5030806;28;20201;-82
2023/01/29 10:48:56;;;;;;;38.60;20.00;;;;;;;1.12;83.32;101819.56;5035198;28;20207;-83
2023/01/29 10:51:37;;;;;;;36.00;17.67;;;;;;;1.16;83.28;101816.06;5035850;28;20220;-83
2023/01/29 10:54:19;;;;;;;34.93;19.07;;;;;;;1.20;83.24;101815.16;5032195;28;20627;-82
2023/01/29 10:57:00;;;;;;;36.23;17.47;;;;;;;1.21;82.55;101806.41;5057416;22;20239;-83
2023/01/29 10:59:44;;;;;;;34.00;17.07;;;;;;;1.21;82.36;101804.66;5050719;28;20213;-82
2023/01/29 11:02:21;;;;;;;34.23;17.10;;;;;;;1.25;82.05;101793.28;5050797;28;20198;-82
2023/01/29 11:04:48;;;;;;;34.37;19.10;;;;;;;1.26;82.26;101787.09;5052110;28;20202;-82
2023/01/29 11:07:17;;;;;;;33.67;17.70;;;;;;;1.29;81.96;101776.59;5050929;28;20283;-82
2023/01/29 11:09:54;;;;;;;34.97;18.87;;;;;;;1.29;81.74;101771.34;5055129;28;20240;-82
2023/01/29 11:12:29;;;;;;;33.80;16.60;;;;;;;1.35;81.71;101773.06;5056370;28;20221;-82
2023/01/29 11:15:01;;;;;;;33.53;18.47;;;;;;;1.34;81.71;101756.44;5062356;28;20208;-85
2023/01/29 11:17:28;;;;;;;26.47;15.20;;;;;;;1.39;81.59;101748.53;5058253;28;20225;-82
2023/01/29 11:19:55;;;;;;;31.70;18.43;;;;;;;1.41;80.50;101749.41;5055962;28;20198;-84
2023/01/29 11:22:23;;;;;;;41.20;16.40;;;;;;;1.43;80.40;101744.13;5057338;28;20204;-83
2023/01/29 11:25:09;;;;;;;35.83;17.80;;;;;;;1.40;80.65;101745.03;5056063;28;20197;-83
2023/01/29 11:27:43;;;;;;;32.13;17.03;;;;;;;1.43;80.76;101736.28;5054581;28;20633;-83
2023/01/29 11:30:16;;;;;;;30.10;17.50;;;;;;;1.45;80.43;101737.97;5043219;28;20197;-83
2023/01/29 11:32:43;;;;;;;34.43;17.20;;;;;;;1.48;80.32;101723.94;5055597;28;20217;-81
2023/01/29 11:35:21;;;;;;;32.50;17.90;;;;;;;1.46;80.30;101721.34;5056682;28;20198;-84
2023/01/29 11:37:48;;;;;;;30.73;16.50;;;;;;;1.45;79.31;101722.22;5056856;28;20681;-85
2023/01/29 11:40:39;;;;;;;32.07;16.73;;;;;;;1.47;79.85;101723.06;5056987;28;20232;-86
2023/01/29 11:43:20;;;;;;;31.87;18.03;;;;;;;1.50;79.50;101730.06;5056208;28;20194;-82
2023/01/29 11:45:49;;;;;;;34.77;18.63;;;;;;;1.49;78.93;101717.81;5056015;28;20201;-82
2023/01/29 11:48:17;;;;;;;26.93;13.83;;;;;;;1.53;78.87;101720.41;5049125;28;20603;-82
2023/01/29 11:50:51;;;;;;;25.03;13.57;;;;;;;1.54;78.75;101716.03;5051304;28;20209;-82
2023/01/29 11:53:24;;;;;;;33.73;18.40;;;;;;;1.56;79.26;101719.50;5049822;28;20553;-84
2023/01/29 11:55:51;;;;;;;35.13;16.67;;;;;;;1.58;78.94;101715.13;5051520;28;20217;-82
2023/01/29 11:58:26;;;;;;;31.83;17.33;;;;;;;1.58;78.33;101707.25;5046819;28;20233;-82
2023/01/29 12:00:54;;;;;;;35.33;21.57;;;;;;;1.58;78.89;101700.25;5044669;28;20202;-82
2023/01/29 12:03:31;;;;;;;31.23;17.37;;;;;;;1.58;79.07;101694.13;5048169;28;20210;-82